sensor_id;sensor_type;location;lat;lon;timestamp;temperature;humidity
26182;DHT22;13927;51.534;11.866;2023-03-31T00:00:43;10.10;99.90
26182;DHT22;13927;51.534;11.866;2023-03-31T00:03:11;10.00;99.90
26182;DHT22;13927;51.534;11.866;2023-03-31T00:05:37;10.00;99.90
26182;DHT22;13927;51.534;11.866;2023-03-31T00:08:04;10.00;99.90
26182;DHT22;13927;51.534;11.866;2023-03-31T00:10:30;9.90;99.90
26182;DHT22;13927;51.534;11.866;2023-03-31T00:12:58;10.00;99.90
26182;DHT22;13927;51.534;11.866;2023-03-31T00:15:24;10.00;99.90
26182;DHT22;13927;51.534;11.866;2023-03-31T00:17:50;9.90;99.90
26182;DHT22;13927;51.534;11.866;2023-03-31T00:20:16;9.90;99.90
26182;DHT22;13927;51.534;11.866;2023-03-31T00:22:41;9.80;99.90
26182;DHT22;13927;51.534;11.866;2023-03-31T00:25:15;9.80;99.90
26182;DHT22;13927;51.534;11.866;2023-03-31T00:27:41;9.70;99.90
26182;DHT22;13927;51.534;11.866;2023-03-31T00:30:08;9.60;99.90
26182;DHT22;13927;51.534;11.866;2023-03-31T00:32:35;9.60;99.90
26182;DHT22;13927;51.534;11.866;2023-03-31T00:35:00;9.60;99.90
26182;DHT22;13927;51.534;11.866;2023-03-31T00:37:27;9.60;99.90
26182;DHT22;13927;51.534;11.866;2023-03-31T00:39:54;9.60;99.90
26182;DHT22;13927;51.534;11.866;2023-03-31T00:42:20;9.60;99.90
26182;DHT22;13927;51.534;11.866;2023-03-31T00:47:39;9.50;99.90
26182;DHT22;13927;51.534;11.866;2023-03-31T00:50:14;9.50;99.90
26182;DHT22;13927;51.534;11.866;2023-03-31T00:52:43;9.50;99.90
26182;DHT22;13927;51.534;11.866;2023-03-31T00:55:11;9.50;99.90
26182;DHT22;13927;51.534;11.866;2023-03-31T00:57:41;9.50;99.90
26182;DHT22;13927;51.534;11.866;2023-03-31T01:00:10;9.50;99.90
26182;DHT22;13927;51.534;11.866;2023-03-31T01:02:43;9.50;99.90
26182;DHT22;13927;51.534;11.866;2023-03-31T01:05:17;9.50;99.90
26182;DHT22;13927;51.534;11.866;2023-03-31T01:07:45;9.50;99.90
26182;DHT22;13927;51.534;11.866;2023-03-31T01:10:13;9.50;99.90
26182;DHT22;13927;51.534;11.866;2023-03-31T01:12:39;9.50;99.90
26182;DHT22;13927;51.534;11.866;2023-03-31T01:15:07;9.50;99.90
26182;DHT22;13927;51.534;11.866;2023-03-31T01:17:33;9.50;99.90
26182;DHT22;13927;51.534;11.866;2023-03-31T01:23:24;9.50;99.90
26182;DHT22;13927;51.534;11.866;2023-03-31T01:25:45;9.60;99.90
26182;DHT22;13927;51.534;11.866;2023-03-31T01:47:49;9.80;99.90
26182;DHT22;13927;51.534;11.866;2023-03-31T01:50:25;9.80;99.90
26182;DHT22;13927;51.534;11.866;2023-03-31T01:58:56;9.80;99.90
26182;DHT22;13927;51.534;11.866;2023-03-31T02:02:00;9.80;99.90
26182;DHT22;13927;51.534;11.866;2023-03-31T02:04:22;9.70;99.90
26182;DHT22;13927;51.534;11.866;2023-03-31T02:06:57;9.70;99.90
26182;DHT22;13927;51.534;11.866;2023-03-31T02:09:27;9.70;99.90
26182;DHT22;13927;51.534;11.866;2023-03-31T02:11:56;9.70;99.90
26182;DHT22;13927;51.534;11.866;2023-03-31T02:14:25;9.60;99.90
26182;DHT22;13927;51.534;11.866;2023-03-31T02:16:54;9.60;99.90
26182;DHT22;13927;51.534;11.866;2023-03-31T02:19:28;9.50;99.90
26182;DHT22;13927;51.534;11.866;2023-03-31T02:21:56;9.50;99.90
26182;DHT22;13927;51.534;11.866;2023-03-31T02:24:24;9.50;99.90
26182;DHT22;13927;51.534;11.866;2023-03-31T02:26:52;9.40;99.90
26182;DHT22;13927;51.534;11.866;2023-03-31T02:29:21;9.40;99.90
26182;DHT22;13927;51.534;11.866;2023-03-31T02:31:52;9.40;99.90
26182;DHT22;13927;51.534;11.866;2023-03-31T02:34:22;9.40;99.90
26182;DHT22;13927;51.534;11.866;2023-03-31T02:36:48;9.40;99.90
26182;DHT22;13927;51.534;11.866;2023-03-31T02:39:16;9.40;99.90
26182;DHT22;13927;51.534;11.866;2023-03-31T02:41:43;9.50;99.90
26182;DHT22;13927;51.534;11.866;2023-03-31T02:44:09;9.50;99.90
26182;DHT22;13927;51.534;11.866;2023-03-31T02:46:35;9.50;99.90
26182;DHT22;13927;51.534;11.866;2023-03-31T02:49:02;9.50;99.90
26182;DHT22;13927;51.534;11.866;2023-03-31T02:51:37;9.50;99.90
26182;DHT22;13927;51.534;11.866;2023-03-31T02:57:05;9.50;99.90
26182;DHT22;13927;51.534;11.866;2023-03-31T03:00:06;9.40;99.90
26182;DHT22;13927;51.534;11.866;2023-03-31T03:10:34;9.20;99.90
26182;DHT22;13927;51.534;11.866;2023-03-31T03:13:10;9.10;99.90
26182;DHT22;13927;51.534;11.866;2023-03-31T03:15:52;9.00;99.90
26182;DHT22;13927;51.534;11.866;2023-03-31T03:18:20;9.00;99.90
26182;DHT22;13927;51.534;11.866;2023-03-31T03:20:46;8.90;99.90
26182;DHT22;13927;51.534;11.866;2023-03-31T03:23:14;8.90;99.90
26182;DHT22;13927;51.534;11.866;2023-03-31T03:25:40;8.90;99.90
26182;DHT22;13927;51.534;11.866;2023-03-31T03:28:06;8.90;99.90
26182;DHT22;13927;51.534;11.866;2023-03-31T03:30:31;9.00;99.90
26182;DHT22;13927;51.534;11.866;2023-03-31T03:32:57;9.00;99.90
26182;DHT22;13927;51.534;11.866;2023-03-31T03:35:23;9.10;99.90
26182;DHT22;13927;51.534;11.866;2023-03-31T03:37:48;9.00;99.90
26182;DHT22;13927;51.534;11.866;2023-03-31T03:40:14;9.10;99.90
26182;DHT22;13927;51.534;11.866;2023-03-31T03:42:40;9.10;99.90
26182;DHT22;13927;51.534;11.866;2023-03-31T03:45:06;9.20;99.90
26182;DHT22;13927;51.534;11.866;2023-03-31T03:47:32;9.20;99.90
26182;DHT22;13927;51.534;11.866;2023-03-31T03:49:58;9.20;99.90
26182;DHT22;13927;51.534;11.866;2023-03-31T03:52:23;9.20;99.90
26182;DHT22;13927;51.534;11.866;2023-03-31T03:54:49;9.30;99.90
26182;DHT22;13927;51.534;11.866;2023-03-31T03:57:14;9.30;99.90
26182;DHT22;13927;51.534;11.866;2023-03-31T03:59:40;9.30;99.90
26182;DHT22;13927;51.534;11.866;2023-03-31T04:02:06;9.30;99.90
26182;DHT22;13927;51.534;11.866;2023-03-31T04:04:32;9.20;99.90
26182;DHT22;13927;51.534;11.866;2023-03-31T04:06:57;9.10;99.90
26182;DHT22;13927;51.534;11.866;2023-03-31T04:09:23;9.10;99.90
26182;DHT22;13927;51.534;11.866;2023-03-31T04:11:49;9.10;99.90
26182;DHT22;13927;51.534;11.866;2023-03-31T04:14:14;9.00;99.90
26182;DHT22;13927;51.534;11.866;2023-03-31T04:16:40;9.00;99.90
26182;DHT22;13927;51.534;11.866;2023-03-31T04:19:06;9.00;99.90
26182;DHT22;13927;51.534;11.866;2023-03-31T04:21:32;8.90;99.90
26182;DHT22;13927;51.534;11.866;2023-03-31T04:24:01;8.90;99.90
26182;DHT22;13927;51.534;11.866;2023-03-31T04:26:29;8.90;99.90
26182;DHT22;13927;51.534;11.866;2023-03-31T04:29:09;8.80;99.90
26182;DHT22;13927;51.534;11.866;2023-03-31T04:31:37;8.80;99.90
26182;DHT22;13927;51.534;11.866;2023-03-31T04:34:03;8.80;99.90
26182;DHT22;13927;51.534;11.866;2023-03-31T04:36:31;8.80;99.90
26182;DHT22;13927;51.534;11.866;2023-03-31T04:38:57;8.70;99.90
26182;DHT22;13927;51.534;11.866;2023-03-31T04:41:24;8.70;99.90
26182;DHT22;13927;51.534;11.866;2023-03-31T04:43:51;8.70;99.90
26182;DHT22;13927;51.534;11.866;2023-03-31T04:46:17;8.60;99.90
26182;DHT22;13927;51.534;11.866;2023-03-31T04:48:43;8.60;99.90
26182;DHT22;13927;51.534;11.866;2023-03-31T04:51:09;8.60;99.90
26182;DHT22;13927;51.534;11.866;2023-03-31T04:53:35;8.60;99.90
26182;DHT22;13927;51.534;11.866;2023-03-31T04:56:00;8.60;99.90
26182;DHT22;13927;51.534;11.866;2023-03-31T04:58:26;8.60;99.90
26182;DHT22;13927;51.534;11.866;2023-03-31T05:00:52;8.60;99.90
26182;DHT22;13927;51.534;11.866;2023-03-31T05:03:18;8.70;99.90
26182;DHT22;13927;51.534;11.866;2023-03-31T05:05:44;8.70;99.90
26182;DHT22;13927;51.534;11.866;2023-03-31T05:08:10;8.70;99.90
26182;DHT22;13927;51.534;11.866;2023-03-31T05:10:36;8.70;99.90
26182;DHT22;13927;51.534;11.866;2023-03-31T05:13:02;8.60;99.90
26182;DHT22;13927;51.534;11.866;2023-03-31T05:15:27;8.60;99.90
26182;DHT22;13927;51.534;11.866;2023-03-31T05:17:53;8.60;99.90
26182;DHT22;13927;51.534;11.866;2023-03-31T05:20:19;8.60;99.90
26182;DHT22;13927;51.534;11.866;2023-03-31T05:22:45;8.60;99.90
26182;DHT22;13927;51.534;11.866;2023-03-31T05:25:12;8.60;99.90
26182;DHT22;13927;51.534;11.866;2023-03-31T05:27:43;8.60;99.90
26182;DHT22;13927;51.534;11.866;2023-03-31T05:30:11;8.60;99.90
26182;DHT22;13927;51.534;11.866;2023-03-31T05:32:38;8.70;99.90
26182;DHT22;13927;51.534;11.866;2023-03-31T05:35:04;8.70;99.90
26182;DHT22;13927;51.534;11.866;2023-03-31T05:37:30;8.90;99.90
26182;DHT22;13927;51.534;11.866;2023-03-31T05:39:56;9.00;99.90
26182;DHT22;13927;51.534;11.866;2023-03-31T05:42:22;9.20;99.90
26182;DHT22;13927;51.534;11.866;2023-03-31T05:44:55;9.40;99.90
26182;DHT22;13927;51.534;11.866;2023-03-31T05:47:57;9.60;99.90
26182;DHT22;13927;51.534;11.866;2023-03-31T05:50:23;9.90;99.90
26182;DHT22;13927;51.534;11.866;2023-03-31T05:52:50;10.10;99.90
26182;DHT22;13927;51.534;11.866;2023-03-31T05:58:07;10.40;99.90
26182;DHT22;13927;51.534;11.866;2023-03-31T06:00:34;10.50;99.90
26182;DHT22;13927;51.534;11.866;2023-03-31T06:03:00;10.60;99.90
26182;DHT22;13927;51.534;11.866;2023-03-31T06:05:26;10.60;99.90
26182;DHT22;13927;51.534;11.866;2023-03-31T06:07:53;10.60;99.90
26182;DHT22;13927;51.534;11.866;2023-03-31T06:10:19;10.60;99.90
26182;DHT22;13927;51.534;11.866;2023-03-31T06:12:45;10.60;99.90
26182;DHT22;13927;51.534;11.866;2023-03-31T06:15:10;10.50;99.90
26182;DHT22;13927;51.534;11.866;2023-03-31T06:17:36;10.50;99.90
26182;DHT22;13927;51.534;11.866;2023-03-31T06:20:02;10.40;99.90
26182;DHT22;13927;51.534;11.866;2023-03-31T06:22:29;10.30;99.90
26182;DHT22;13927;51.534;11.866;2023-03-31T06:24:56;10.30;99.90
26182;DHT22;13927;51.534;11.866;2023-03-31T06:27:21;10.30;99.90
26182;DHT22;13927;51.534;11.866;2023-03-31T06:29:47;10.30;99.90
26182;DHT22;13927;51.534;11.866;2023-03-31T06:32:14;10.30;99.90
26182;DHT22;13927;51.534;11.866;2023-03-31T06:34:40;10.40;99.90
26182;DHT22;13927;51.534;11.866;2023-03-31T06:37:06;10.40;99.90
26182;DHT22;13927;51.534;11.866;2023-03-31T06:39:32;10.40;99.90
26182;DHT22;13927;51.534;11.866;2023-03-31T06:41:58;10.50;99.90
26182;DHT22;13927;51.534;11.866;2023-03-31T06:44:23;10.50;99.90
26182;DHT22;13927;51.534;11.866;2023-03-31T06:46:49;10.50;99.90
26182;DHT22;13927;51.534;11.866;2023-03-31T06:49:15;10.60;99.90
26182;DHT22;13927;51.534;11.866;2023-03-31T06:51:41;10.60;99.90
26182;DHT22;13927;51.534;11.866;2023-03-31T06:54:07;10.60;99.90
26182;DHT22;13927;51.534;11.866;2023-03-31T06:56:33;10.60;99.90
26182;DHT22;13927;51.534;11.866;2023-03-31T06:58:58;10.70;99.90
26182;DHT22;13927;51.534;11.866;2023-03-31T07:01:24;10.70;99.90
26182;DHT22;13927;51.534;11.866;2023-03-31T07:03:50;10.70;99.90
26182;DHT22;13927;51.534;11.866;2023-03-31T07:06:16;10.70;99.90
26182;DHT22;13927;51.534;11.866;2023-03-31T07:08:42;10.80;99.90
26182;DHT22;13927;51.534;11.866;2023-03-31T07:11:07;10.90;99.90
26182;DHT22;13927;51.534;11.866;2023-03-31T07:13:33;11.00;99.90
26182;DHT22;13927;51.534;11.866;2023-03-31T07:16:09;11.00;99.90
26182;DHT22;13927;51.534;11.866;2023-03-31T07:18:57;11.10;99.90
26182;DHT22;13927;51.534;11.866;2023-03-31T07:21:24;11.20;99.90
26182;DHT22;13927;51.534;11.866;2023-03-31T07:23:50;11.20;99.90
26182;DHT22;13927;51.534;11.866;2023-03-31T07:26:16;11.20;99.90
26182;DHT22;13927;51.534;11.866;2023-03-31T07:28:42;11.20;99.90
26182;DHT22;13927;51.534;11.866;2023-03-31T07:31:11;11.30;99.90
26182;DHT22;13927;51.534;11.866;2023-03-31T07:33:38;11.40;99.90
26182;DHT22;13927;51.534;11.866;2023-03-31T07:36:05;11.40;99.90
26182;DHT22;13927;51.534;11.866;2023-03-31T07:38:34;11.50;99.90
26182;DHT22;13927;51.534;11.866;2023-03-31T07:41:21;11.60;99.90
26182;DHT22;13927;51.534;11.866;2023-03-31T07:47:09;11.70;99.90
26182;DHT22;13927;51.534;11.866;2023-03-31T07:50:14;11.70;99.90
26182;DHT22;13927;51.534;11.866;2023-03-31T08:03:31;11.90;99.90
26182;DHT22;13927;51.534;11.866;2023-03-31T08:09:51;12.00;99.90
26182;DHT22;13927;51.534;11.866;2023-03-31T08:12:17;12.10;99.90
26182;DHT22;13927;51.534;11.866;2023-03-31T08:14:43;12.00;99.90
26182;DHT22;13927;51.534;11.866;2023-03-31T08:17:09;12.00;99.90
26182;DHT22;13927;51.534;11.866;2023-03-31T08:19:35;11.90;99.90
26182;DHT22;13927;51.534;11.866;2023-03-31T08:22:01;11.90;99.90
26182;DHT22;13927;51.534;11.866;2023-03-31T08:24:27;12.00;99.90
26182;DHT22;13927;51.534;11.866;2023-03-31T08:26:53;12.00;99.90
26182;DHT22;13927;51.534;11.866;2023-03-31T08:32:20;12.00;99.90
26182;DHT22;13927;51.534;11.866;2023-03-31T08:34:47;12.00;99.90
26182;DHT22;13927;51.534;11.866;2023-03-31T08:37:15;12.10;99.90
26182;DHT22;13927;51.534;11.866;2023-03-31T08:39:41;12.20;99.90
26182;DHT22;13927;51.534;11.866;2023-03-31T08:52:04;12.20;99.90
26182;DHT22;13927;51.534;11.866;2023-03-31T08:54:30;12.30;99.90
26182;DHT22;13927;51.534;11.866;2023-03-31T09:28:30;12.50;99.90
26182;DHT22;13927;51.534;11.866;2023-03-31T09:30:59;12.50;99.90
26182;DHT22;13927;51.534;11.866;2023-03-31T09:33:32;12.40;99.90
26182;DHT22;13927;51.534;11.866;2023-03-31T09:36:00;12.40;99.90
26182;DHT22;13927;51.534;11.866;2023-03-31T09:38:27;12.30;99.90
26182;DHT22;13927;51.534;11.866;2023-03-31T09:40:55;12.10;99.90
26182;DHT22;13927;51.534;11.866;2023-03-31T09:43:25;12.10;99.90
26182;DHT22;13927;51.534;11.866;2023-03-31T09:45:52;11.90;99.90
26182;DHT22;13927;51.534;11.866;2023-03-31T09:48:19;11.90;99.90
26182;DHT22;13927;51.534;11.866;2023-03-31T09:50:48;11.80;99.90
26182;DHT22;13927;51.534;11.866;2023-03-31T09:53:33;11.70;99.90
26182;DHT22;13927;51.534;11.866;2023-03-31T09:56:05;11.70;99.90
26182;DHT22;13927;51.534;11.866;2023-03-31T09:58:39;11.60;99.90
26182;DHT22;13927;51.534;11.866;2023-03-31T10:01:06;11.60;99.90
26182;DHT22;13927;51.534;11.866;2023-03-31T10:04:09;11.60;99.90
26182;DHT22;13927;51.534;11.866;2023-03-31T10:06:29;11.60;99.90
26182;DHT22;13927;51.534;11.866;2023-03-31T10:08:56;11.60;99.90
26182;DHT22;13927;51.534;11.866;2023-03-31T10:11:24;11.60;99.90
26182;DHT22;13927;51.534;11.866;2023-03-31T10:13:52;11.50;99.90
26182;DHT22;13927;51.534;11.866;2023-03-31T10:16:29;11.60;99.90
26182;DHT22;13927;51.534;11.866;2023-03-31T10:19:10;11.50;99.90
26182;DHT22;13927;51.534;11.866;2023-03-31T10:21:45;11.50;99.90
26182;DHT22;13927;51.534;11.866;2023-03-31T10:24:19;11.50;99.90
26182;DHT22;13927;51.534;11.866;2023-03-31T10:27:17;11.50;99.90
26182;DHT22;13927;51.534;11.866;2023-03-31T10:30:02;11.50;99.90
26182;DHT22;13927;51.534;11.866;2023-03-31T10:32:30;11.50;99.90
26182;DHT22;13927;51.534;11.866;2023-03-31T10:34:58;11.50;99.90
26182;DHT22;13927;51.534;11.866;2023-03-31T10:37:46;11.50;99.90
26182;DHT22;13927;51.534;11.866;2023-03-31T10:40:14;11.50;99.90
26182;DHT22;13927;51.534;11.866;2023-03-31T10:42:45;11.50;99.90
26182;DHT22;13927;51.534;11.866;2023-03-31T10:45:17;11.40;99.90
26182;DHT22;13927;51.534;11.866;2023-03-31T10:47:52;11.40;99.90
26182;DHT22;13927;51.534;11.866;2023-03-31T10:50:19;11.30;99.90
26182;DHT22;13927;51.534;11.866;2023-03-31T10:52:51;11.40;99.90
26182;DHT22;13927;51.534;11.866;2023-03-31T10:55:21;11.40;99.90
26182;DHT22;13927;51.534;11.866;2023-03-31T10:57:54;11.40;99.90
26182;DHT22;13927;51.534;11.866;2023-03-31T11:00:30;11.30;99.90
26182;DHT22;13927;51.534;11.866;2023-03-31T11:09:15;11.30;99.90
26182;DHT22;13927;51.534;11.866;2023-03-31T11:14:28;11.30;99.90
26182;DHT22;13927;51.534;11.866;2023-03-31T11:25:08;11.40;99.90
26182;DHT22;13927;51.534;11.866;2023-03-31T11:33:37;11.50;99.90
26182;DHT22;13927;51.534;11.866;2023-03-31T11:40:05;11.50;99.90
26182;DHT22;13927;51.534;11.866;2023-03-31T11:45:52;11.50;99.90
26182;DHT22;13927;51.534;11.866;2023-03-31T11:51:10;11.40;99.90
26182;DHT22;13927;51.534;11.866;2023-03-31T11:57:29;11.40;99.90
26182;DHT22;13927;51.534;11.866;2023-03-31T12:00:05;11.40;99.90
26182;DHT22;13927;51.534;11.866;2023-03-31T12:02:42;11.40;99.90
26182;DHT22;13927;51.534;11.866;2023-03-31T12:05:29;11.40;99.90
26182;DHT22;13927;51.534;11.866;2023-03-31T12:10:37;11.30;99.90
26182;DHT22;13927;51.534;11.866;2023-03-31T12:16:08;11.30;99.90
26182;DHT22;13927;51.534;11.866;2023-03-31T12:22:16;11.40;99.90
26182;DHT22;13927;51.534;11.866;2023-03-31T12:24:51;11.40;99.90
26182;DHT22;13927;51.534;11.866;2023-03-31T12:30:16;11.50;99.90
26182;DHT22;13927;51.534;11.866;2023-03-31T12:57:37;12.50;99.90
26182;DHT22;13927;51.534;11.866;2023-03-31T13:26:05;14.30;99.90
26182;DHT22;13927;51.534;11.866;2023-03-31T13:32:54;13.90;99.90
26182;DHT22;13927;51.534;11.866;2023-03-31T14:05:42;15.10;99.90
26182;DHT22;13927;51.534;11.866;2023-03-31T14:08:17;14.80;99.90
26182;DHT22;13927;51.534;11.866;2023-03-31T14:10:49;14.40;99.90
26182;DHT22;13927;51.534;11.866;2023-03-31T14:13:18;14.20;99.90
26182;DHT22;13927;51.534;11.866;2023-03-31T14:15:49;14.10;99.90
26182;DHT22;13927;51.534;11.866;2023-03-31T14:18:24;14.00;99.90
26182;DHT22;13927;51.534;11.866;2023-03-31T14:21:03;13.90;99.90
26182;DHT22;13927;51.534;11.866;2023-03-31T14:24:20;13.70;99.90
26182;DHT22;13927;51.534;11.866;2023-03-31T14:26:52;13.60;99.90
26182;DHT22;13927;51.534;11.866;2023-03-31T14:39:35;13.00;99.90
26182;DHT22;13927;51.534;11.866;2023-03-31T14:42:04;12.80;99.90
26182;DHT22;13927;51.534;11.866;2023-03-31T14:44:32;12.80;99.90
26182;DHT22;13927;51.534;11.866;2023-03-31T14:46:58;12.60;99.90
26182;DHT22;13927;51.534;11.866;2023-03-31T14:49:25;12.50;99.90
26182;DHT22;13927;51.534;11.866;2023-03-31T14:58:49;12.40;99.90
26182;DHT22;13927;51.534;11.866;2023-03-31T15:01:18;12.30;99.90
26182;DHT22;13927;51.534;11.866;2023-03-31T15:03:48;12.30;99.90
26182;DHT22;13927;51.534;11.866;2023-03-31T15:06:23;12.20;99.90
26182;DHT22;13927;51.534;11.866;2023-03-31T15:08:54;12.20;99.90
26182;DHT22;13927;51.534;11.866;2023-03-31T15:11:22;12.20;99.90
26182;DHT22;13927;51.534;11.866;2023-03-31T15:13:49;12.10;99.90
26182;DHT22;13927;51.534;11.866;2023-03-31T15:47:19;12.40;99.90
26182;DHT22;13927;51.534;11.866;2023-03-31T15:49:54;13.00;99.90
26182;DHT22;13927;51.534;11.866;2023-03-31T15:52:29;13.00;99.90
26182;DHT22;13927;51.534;11.866;2023-03-31T15:54:58;12.90;99.90
26182;DHT22;13927;51.534;11.866;2023-03-31T15:57:32;12.70;99.90
26182;DHT22;13927;51.534;11.866;2023-03-31T15:59:59;12.50;99.90
26182;DHT22;13927;51.534;11.866;2023-03-31T16:02:28;12.30;99.90
26182;DHT22;13927;51.534;11.866;2023-03-31T16:05:03;12.20;99.90
26182;DHT22;13927;51.534;11.866;2023-03-31T16:07:30;12.10;99.90
26182;DHT22;13927;51.534;11.866;2023-03-31T16:09:59;12.00;99.90
26182;DHT22;13927;51.534;11.866;2023-03-31T16:12:34;12.00;99.90
26182;DHT22;13927;51.534;11.866;2023-03-31T16:17:39;11.90;99.90
26182;DHT22;13927;51.534;11.866;2023-03-31T16:20:20;11.90;99.90
26182;DHT22;13927;51.534;11.866;2023-03-31T16:22:50;11.90;99.90
26182;DHT22;13927;51.534;11.866;2023-03-31T16:25:18;11.90;99.90
26182;DHT22;13927;51.534;11.866;2023-03-31T16:27:47;11.80;99.90
26182;DHT22;13927;51.534;11.866;2023-03-31T16:30:17;11.80;99.90
26182;DHT22;13927;51.534;11.866;2023-03-31T16:32:57;11.70;99.90
26182;DHT22;13927;51.534;11.866;2023-03-31T16:35:23;11.70;99.90
26182;DHT22;13927;51.534;11.866;2023-03-31T16:37:53;11.80;99.90
26182;DHT22;13927;51.534;11.866;2023-03-31T16:40:19;11.70;99.90
26182;DHT22;13927;51.534;11.866;2023-03-31T16:42:45;11.80;99.90
26182;DHT22;13927;51.534;11.866;2023-03-31T16:45:11;11.70;99.90
26182;DHT22;13927;51.534;11.866;2023-03-31T16:47:38;11.70;99.90
26182;DHT22;13927;51.534;11.866;2023-03-31T16:50:04;11.70;99.90
26182;DHT22;13927;51.534;11.866;2023-03-31T16:52:31;11.70;99.90
26182;DHT22;13927;51.534;11.866;2023-03-31T16:54:57;11.70;99.90
26182;DHT22;13927;51.534;11.866;2023-03-31T16:57:23;11.70;99.90
26182;DHT22;13927;51.534;11.866;2023-03-31T16:59:49;11.70;99.90
26182;DHT22;13927;51.534;11.866;2023-03-31T17:02:15;11.80;99.90
26182;DHT22;13927;51.534;11.866;2023-03-31T17:04:41;11.70;99.90
26182;DHT22;13927;51.534;11.866;2023-03-31T17:07:07;11.70;99.90
26182;DHT22;13927;51.534;11.866;2023-03-31T17:09:32;11.70;99.90
26182;DHT22;13927;51.534;11.866;2023-03-31T17:11:58;11.70;99.90
26182;DHT22;13927;51.534;11.866;2023-03-31T17:14:24;11.70;99.90
26182;DHT22;13927;51.534;11.866;2023-03-31T17:16:50;11.70;99.90
26182;DHT22;13927;51.534;11.866;2023-03-31T17:19:16;11.60;99.90
26182;DHT22;13927;51.534;11.866;2023-03-31T17:21:42;11.60;99.90
26182;DHT22;13927;51.534;11.866;2023-03-31T17:24:08;11.60;99.90
26182;DHT22;13927;51.534;11.866;2023-03-31T17:26:34;11.50;99.90
26182;DHT22;13927;51.534;11.866;2023-03-31T17:29:01;11.50;99.90
26182;DHT22;13927;51.534;11.866;2023-03-31T17:31:27;11.40;99.90
26182;DHT22;13927;51.534;11.866;2023-03-31T17:33:55;11.30;99.90
26182;DHT22;13927;51.534;11.866;2023-03-31T17:36:21;11.20;99.90
26182;DHT22;13927;51.534;11.866;2023-03-31T17:38:46;11.10;99.90
26182;DHT22;13927;51.534;11.866;2023-03-31T17:41:12;11.10;99.90
26182;DHT22;13927;51.534;11.866;2023-03-31T17:43:39;11.10;99.90
26182;DHT22;13927;51.534;11.866;2023-03-31T17:46:08;11.10;99.90
26182;DHT22;13927;51.534;11.866;2023-03-31T17:48:34;11.00;99.90
26182;DHT22;13927;51.534;11.866;2023-03-31T17:51:02;11.00;99.90
26182;DHT22;13927;51.534;11.866;2023-03-31T17:53:32;11.00;99.90
26182;DHT22;13927;51.534;11.866;2023-03-31T17:55:59;11.00;99.90
26182;DHT22;13927;51.534;11.866;2023-03-31T17:58:25;10.90;99.90
26182;DHT22;13927;51.534;11.866;2023-03-31T18:00:51;10.90;99.90
26182;DHT22;13927;51.534;11.866;2023-03-31T18:03:17;10.80;99.90
26182;DHT22;13927;51.534;11.866;2023-03-31T18:05:43;10.80;99.90
26182;DHT22;13927;51.534;11.866;2023-03-31T18:08:09;10.80;99.90
26182;DHT22;13927;51.534;11.866;2023-03-31T18:10:36;10.70;99.90
26182;DHT22;13927;51.534;11.866;2023-03-31T18:13:02;10.70;99.90
26182;DHT22;13927;51.534;11.866;2023-03-31T18:15:27;10.60;99.90
26182;DHT22;13927;51.534;11.866;2023-03-31T18:17:53;10.60;99.90
26182;DHT22;13927;51.534;11.866;2023-03-31T18:20:19;10.60;99.90
26182;DHT22;13927;51.534;11.866;2023-03-31T18:22:45;10.50;99.90
26182;DHT22;13927;51.534;11.866;2023-03-31T18:25:10;10.50;99.90
26182;DHT22;13927;51.534;11.866;2023-03-31T18:27:37;10.50;99.90
26182;DHT22;13927;51.534;11.866;2023-03-31T18:30:03;10.40;99.90
26182;DHT22;13927;51.534;11.866;2023-03-31T18:32:30;10.40;99.90
26182;DHT22;13927;51.534;11.866;2023-03-31T18:34:56;10.40;99.90
26182;DHT22;13927;51.534;11.866;2023-03-31T18:37:21;10.40;99.90
26182;DHT22;13927;51.534;11.866;2023-03-31T18:39:47;10.40;99.90
26182;DHT22;13927;51.534;11.866;2023-03-31T18:42:13;10.40;99.90
26182;DHT22;13927;51.534;11.866;2023-03-31T18:44:38;10.40;99.90
26182;DHT22;13927;51.534;11.866;2023-03-31T18:47:04;10.40;99.90
26182;DHT22;13927;51.534;11.866;2023-03-31T18:49:30;10.40;99.90
26182;DHT22;13927;51.534;11.866;2023-03-31T18:51:56;10.40;99.90
26182;DHT22;13927;51.534;11.866;2023-03-31T18:54:23;10.40;99.90
26182;DHT22;13927;51.534;11.866;2023-03-31T18:56:50;10.40;99.90
26182;DHT22;13927;51.534;11.866;2023-03-31T18:59:16;10.40;99.90
26182;DHT22;13927;51.534;11.866;2023-03-31T19:01:42;10.40;99.90
26182;DHT22;13927;51.534;11.866;2023-03-31T19:04:08;10.40;99.90
26182;DHT22;13927;51.534;11.866;2023-03-31T19:06:34;10.40;99.90
26182;DHT22;13927;51.534;11.866;2023-03-31T19:09:00;10.40;99.90
26182;DHT22;13927;51.534;11.866;2023-03-31T19:11:25;10.50;99.90
26182;DHT22;13927;51.534;11.866;2023-03-31T19:13:51;10.50;99.90
26182;DHT22;13927;51.534;11.866;2023-03-31T19:16:19;10.50;99.90
26182;DHT22;13927;51.534;11.866;2023-03-31T19:18:45;10.50;99.90
26182;DHT22;13927;51.534;11.866;2023-03-31T19:21:11;10.50;99.90
26182;DHT22;13927;51.534;11.866;2023-03-31T19:23:37;10.50;99.90
26182;DHT22;13927;51.534;11.866;2023-03-31T19:26:04;10.40;99.90
26182;DHT22;13927;51.534;11.866;2023-03-31T19:28:30;10.40;99.90
26182;DHT22;13927;51.534;11.866;2023-03-31T19:30:56;10.30;99.90
26182;DHT22;13927;51.534;11.866;2023-03-31T19:33:23;10.20;99.90
26182;DHT22;13927;51.534;11.866;2023-03-31T19:35:49;10.20;99.90
26182;DHT22;13927;51.534;11.866;2023-03-31T19:38:15;10.10;99.90
26182;DHT22;13927;51.534;11.866;2023-03-31T19:40:43;10.10;99.90
26182;DHT22;13927;51.534;11.866;2023-03-31T19:43:12;10.00;99.90
26182;DHT22;13927;51.534;11.866;2023-03-31T19:45:43;10.00;99.90
26182;DHT22;13927;51.534;11.866;2023-03-31T19:48:10;10.00;99.90
26182;DHT22;13927;51.534;11.866;2023-03-31T19:50:37;10.00;99.90
26182;DHT22;13927;51.534;11.866;2023-03-31T19:53:03;10.00;99.90
26182;DHT22;13927;51.534;11.866;2023-03-31T19:55:28;10.00;99.90
26182;DHT22;13927;51.534;11.866;2023-03-31T19:57:54;10.00;99.90
26182;DHT22;13927;51.534;11.866;2023-03-31T20:00:20;10.00;99.90
26182;DHT22;13927;51.534;11.866;2023-03-31T20:02:48;10.00;99.90
26182;DHT22;13927;51.534;11.866;2023-03-31T20:05:14;10.00;99.90
26182;DHT22;13927;51.534;11.866;2023-03-31T20:07:41;10.00;99.90
26182;DHT22;13927;51.534;11.866;2023-03-31T20:10:07;10.00;99.90
26182;DHT22;13927;51.534;11.866;2023-03-31T20:12:35;10.00;99.90
26182;DHT22;13927;51.534;11.866;2023-03-31T20:15:01;10.00;99.90
26182;DHT22;13927;51.534;11.866;2023-03-31T20:17:27;10.00;99.90
26182;DHT22;13927;51.534;11.866;2023-03-31T20:19:52;10.00;99.90
26182;DHT22;13927;51.534;11.866;2023-03-31T20:22:18;10.00;99.90